Time;durP1;ratioP1;P1;durP2;ratioP2;P2;SDS_P1;SDS_P2;PMS_P1;PMS_P2;Temp;Humidity;BMP_temperature;BMP_pressure;BME280_temperature;BME280_humidity;BME280_pressure;Samples;Min_cycle;Max_cycle;Signal;HPM_P1;HPM_P2
2023/05/14 00:04:48;;;;;;;2.47;1.80;;;;;;;19.38;59.35;101730.41;20826861;28;20140;-64
2023/05/14 00:14:50;;;;;;;2.03;1.80;;;;;;;19.39;59.53;101728.53;20826594;28;20496;-64
2023/05/14 00:24:51;;;;;;;1.80;1.70;;;;;;;19.37;59.22;101717.00;20825824;28;20050;-64
2023/05/14 00:34:53;;;;;;;1.83;1.60;;;;;;;19.36;59.63;101705.38;20823821;28;20049;-64
2023/05/14 00:44:54;;;;;;;2.00;1.75;;;;;;;19.35;59.16;101700.06;20822982;28;20044;-64
2023/05/14 00:54:57;;;;;;;1.63;1.50;;;;;;;19.33;59.44;101691.25;20847354;28;20586;-64
2023/05/14 01:04:58;;;;;;;2.10;1.60;;;;;;;19.32;59.50;101684.13;20887289;28;20051;-64
2023/05/14 01:15:21;;;;;;;2.22;1.85;;;;;;;19.30;59.55;101686.97;20902272;28;20046;-64
2023/05/14 01:25:22;;;;;;;2.55;1.77;;;;;;;19.28;59.56;101667.34;20900958;28;20057;-64
2023/05/14 01:35:27;;;;;;;1.92;1.60;;;;;;;19.28;59.26;101661.94;20901423;28;20087;-64
2023/05/14 01:45:29;;;;;;;2.15;1.75;;;;;;;19.26;59.48;101651.28;20900376;28;20045;-64
2023/05/14 01:55:31;;;;;;;1.50;1.40;;;;;;;19.26;59.15;101650.44;20885966;28;20057;-64
2023/05/14 02:05:32;;;;;;;1.50;1.38;;;;;;;19.24;59.18;101645.13;20899607;28;20041;-64
2023/05/14 02:15:34;;;;;;;2.38;1.55;;;;;;;19.24;59.18;101644.28;20898990;28;20469;-64
2023/05/14 02:25:36;;;;;;;1.92;1.60;;;;;;;19.22;59.09;101636.31;20899597;28;20102;-64
2023/05/14 02:35:38;;;;;;;1.35;1.23;;;;;;;19.21;58.75;101615.69;20898377;28;20051;-64
2023/05/14 02:45:39;;;;;;;1.80;1.50;;;;;;;19.19;58.86;101604.19;20900032;28;20048;-64
2023/05/14 02:55:41;;;;;;;2.25;1.70;;;;;;;19.19;58.66;101604.19;20872151;28;20049;-64
2023/05/14 03:05:43;;;;;;;1.80;1.70;;;;;;;19.17;58.77;101602.56;20899846;28;20165;-64
2023/05/14 03:15:45;;;;;;;2.03;1.50;;;;;;;19.15;58.70;101613.50;20912962;28;20048;-64
2023/05/14 03:25:47;;;;;;;2.08;1.50;;;;;;;19.13;58.73;101605.53;20894997;28;20064;-64
2023/05/14 03:35:48;;;;;;;1.67;1.50;;;;;;;19.13;58.78;101610.09;20894578;28;20072;-64
2023/05/14 03:45:51;;;;;;;1.45;1.35;;;;;;;19.12;58.77;101592.19;20910407;28;20841;-64
2023/05/14 03:55:53;;;;;;;2.25;1.80;;;;;;;19.11;58.83;101593.16;20897125;28;20041;-64
2023/05/14 04:05:55;;;;;;;1.67;1.58;;;;;;;19.10;58.65;101592.28;20909737;28;20045;-64
2023/05/14 04:15:56;;;;;;;2.15;1.65;;;;;;;19.09;58.53;101587.03;20907825;28;20052;-64
2023/05/14 04:25:58;;;;;;;2.30;1.80;;;;;;;19.05;58.64;101569.41;20908272;28;20412;-64
2023/05/14 04:36:00;;;;;;;3.05;1.48;;;;;;;19.07;58.44;101572.81;20906154;28;20045;-64
2023/05/14 04:46:02;;;;;;;2.25;1.50;;;;;;;19.06;58.49;101571.94;20898166;28;20108;-64
2023/05/14 04:56:04;;;;;;;1.73;1.63;;;;;;;19.05;58.41;101575.63;20897983;28;20099;-64
2023/05/14 05:06:05;;;;;;;1.80;1.70;;;;;;;19.06;58.45;101573.81;20903657;28;20057;-64
2023/05/14 05:16:07;;;;;;;1.67;1.40;;;;;;;19.06;58.54;101582.75;20902879;28;20651;-64
2023/05/14 05:26:09;;;;;;;2.50;1.58;;;;;;;19.06;58.78;101590.84;20903680;28;20612;-64
2023/05/14 05:36:10;;;;;;;1.60;1.35;;;;;;;19.07;58.70;101579.06;20901790;28;20102;-64
2023/05/14 05:46:12;;;;;;;1.85;1.40;;;;;;;19.09;58.99;101582.50;20891232;28;20064;-64
2023/05/14 05:56:13;;;;;;;2.78;1.50;;;;;;;19.10;59.01;101580.66;20901924;28;20053;-64
2023/05/14 06:06:15;;;;;;;1.52;1.27;;;;;;;19.11;59.06;101588.59;20900918;28;20071;-64
2023/05/14 06:16:16;;;;;;;1.45;1.30;;;;;;;19.13;58.84;101599.28;20900750;28;20053;-64
2023/05/14 06:26:18;;;;;;;2.28;1.50;;;;;;;19.15;59.16;101597.31;20899032;28;20064;-64
2023/05/14 06:36:20;;;;;;;1.63;1.45;;;;;;;19.17;59.25;101605.28;20899830;28;20055;-64
2023/05/14 06:46:21;;;;;;;2.28;1.40;;;;;;;19.21;59.35;101595.94;20899259;28;20057;-64
2023/05/14 06:56:23;;;;;;;1.65;1.38;;;;;;;19.26;59.34;101588.34;20914749;28;20056;-64
2023/05/14 07:06:24;;;;;;;1.63;1.30;;;;;;;19.31;59.53;101585.22;20914705;28;20056;-64
2023/05/14 07:16:26;;;;;;;2.08;1.40;;;;;;;19.36;59.70;101566.78;20913795;28;20417;-64
2023/05/14 07:26:28;;;;;;;2.05;1.50;;;;;;;19.39;59.75;101571.94;20911715;28;20136;-64
2023/05/14 07:36:30;;;;;;;2.33;1.45;;;;;;;19.43;59.45;101581.50;20911439;28;20449;-64
2023/05/14 07:46:31;;;;;;;1.83;1.20;;;;;;;19.47;59.42;101585.66;20900930;28;20048;-64
2023/05/14 07:56:33;;;;;;;2.15;1.30;;;;;;;19.52;59.75;101578.03;20909927;28;20041;-64
2023/05/14 08:06:36;;;;;;;1.30;1.20;;;;;;;19.58;59.71;101579.34;20909464;28;20057;-64
2023/05/14 08:16:37;;;;;;;3.10;1.50;;;;;;;19.64;59.88;101575.25;20908835;28;20052;-64
2023/05/14 08:26:39;;;;;;;2.08;1.50;;;;;;;19.62;59.80;101572.69;20909177;28;20041;-64
2023/05/14 08:36:40;;;;;;;1.60;1.48;;;;;;;19.73;59.61;101589.84;20908290;28;20049;-64
2023/05/14 08:46:42;;;;;;;2.45;1.27;;;;;;;19.77;59.81;101581.31;20894357;28;20059;-64
2023/05/14 08:56:47;;;;;;;1.23;1.08;;;;;;;19.73;59.81;101563.66;20906445;28;20040;-64
2023/05/14 09:06:53;;;;;;;1.55;1.30;;;;;;;19.81;59.64;101571.09;20903930;28;20048;-64
2023/05/14 09:16:55;;;;;;;1.35;1.25;;;;;;;19.79;59.67;101557.72;20903284;28;20052;-64
2023/05/14 09:26:57;;;;;;;1.83;1.30;;;;;;;19.79;59.83;101565.81;20903109;28;20071;-64
2023/05/14 09:37:00;;;;;;;1.58;1.40;;;;;;;19.81;60.11;101557.59;20902995;28;20064;-64
2023/05/14 09:47:01;;;;;;;2.53;1.58;;;;;;;19.84;60.15;101547.38;20887115;28;20511;-64
2023/05/14 09:57:03;;;;;;;1.77;1.08;;;;;;;19.90;59.98;101542.44;20883979;28;20045;-64
2023/05/14 10:07:05;;;;;;;2.00;1.23;;;;;;;19.94;60.03;101522.31;20883065;28;20048;-65
2023/05/14 10:17:06;;;;;;;1.30;1.20;;;;;;;19.92;59.94;101502.66;20899683;28;20049;-65
2023/05/14 10:27:09;;;;;;;1.00;1.00;;;;;;;20.02;60.03;101508.09;20899825;28;20045;-65
2023/05/14 10:37:26;;;;;;;1.60;1.00;;;;;;;20.06;59.81;101496.88;20895604;28;20048;-65
2023/05/14 10:47:28;;;;;;;1.05;0.90;;;;;;;20.09;59.67;101495.75;20891700;28;20053;-65
2023/05/14 10:57:31;;;;;;;1.10;1.00;;;;;;;20.10;59.55;101484.81;20898058;28;20140;-65
2023/05/14 11:07:40;;;;;;;1.08;0.98;;;;;;;20.12;59.65;101480.13;20898523;28;20540;-64
2023/05/14 11:17:43;;;;;;;1.13;0.80;;;;;;;20.14;59.49;101470.03;20898016;28;20045;-65
2023/05/14 11:27:45;;;;;;;0.82;0.80;;;;;;;20.16;59.53;101461.78;20903606;28;20087;-65
2023/05/14 11:37:50;;;;;;;1.13;0.80;;;;;;;20.17;59.43;101444.56;20898597;28;20104;-65
2023/05/14 11:47:53;;;;;;;1.90;1.00;;;;;;;20.12;59.16;101426.06;20747865;28;20050;-65
2023/05/14 11:57:55;;;;;;;0.93;0.88;;;;;;;20.20;58.98;101430.78;20747620;28;20050;-65
2023/05/14 12:07:56;;;;;;;0.80;0.80;;;;;;;20.22;59.07;101427.91;20746261;28;20054;-65
2023/05/14 12:17:58;;;;;;;0.80;0.80;;;;;;;20.22;58.88;101417.09;20745223;28;20536;-64
2023/05/14 12:27:59;;;;;;;1.13;1.00;;;;;;;20.22;58.65;101406.28;20744764;28;20064;-64
2023/05/14 12:38:02;;;;;;;1.30;0.88;;;;;;;20.23;58.40;101413.41;20805233;28;20504;-65
2023/05/14 12:48:04;;;;;;;1.50;1.20;;;;;;;20.21;58.43;101400.03;20907039;28;20408;-65
2023/05/14 12:58:05;;;;;;;1.05;0.95;;;;;;;20.20;58.35;101386.66;20905429;28;20045;-65
2023/05/14 13:08:08;;;;;;;1.08;0.80;;;;;;;20.20;58.08;101375.84;20904701;28;20095;-65
2023/05/14 13:18:10;;;;;;;1.52;0.93;;;;;;;20.20;57.98;101367.72;20904669;28;20123;-65
2023/05/14 13:28:11;;;;;;;1.02;0.93;;;;;;;20.19;57.89;101363.31;20903502;28;20089;-65
2023/05/14 13:38:13;;;;;;;0.90;0.90;;;;;;;20.19;57.83;101347.09;20890888;28;20445;-65
2023/05/14 13:48:14;;;;;;;0.80;0.80;;;;;;;20.18;57.71;101351.66;20900066;28;20045;-64
2023/05/14 13:58:16;;;;;;;1.30;1.00;;;;;;;20.18;57.56;101348.09;20901890;28;20063;-64
2023/05/14 14:08:18;;;;;;;0.80;0.77;;;;;;;20.17;57.70;101333.75;20900802;28;20053;-65
2023/05/14 14:18:25;;;;;;;1.25;0.98;;;;;;;20.17;57.68;101322.06;20901157;28;20053;-64
2023/05/14 14:28:27;;;;;;;0.80;0.80;;;;;;;20.16;57.46;101304.13;20900225;28;20056;-64
2023/05/14 14:38:30;;;;;;;1.08;1.08;;;;;;;20.12;57.25;101306.28;20883667;28;20053;-65
2023/05/14 14:48:36;;;;;;;0.80;0.80;;;;;;;20.17;57.52;101303.13;20900072;28;20501;-64
2023/05/14 14:58:37;;;;;;;0.70;0.70;;;;;;;20.14;57.37;101291.63;20899858;28;20072;-64
2023/05/14 15:08:40;;;;;;;1.30;0.77;;;;;;;20.16;57.38;101296.88;20913766;28;20049;-64
2023/05/14 15:18:41;;;;;;;0.85;0.80;;;;;;;20.16;57.19;101287.91;20914684;28;20049;-64
2023/05/14 15:28:43;;;;;;;0.70;0.70;;;;;;;20.16;57.19;101282.50;20912782;28;20048;-65
2023/05/14 15:38:45;;;;;;;0.80;0.80;;;;;;;20.16;56.98;101277.09;20901929;28;20560;-65
2023/05/14 15:48:46;;;;;;;1.55;1.08;;;;;;;20.15;57.20;101254.63;20912628;28;20060;-64
2023/05/14 15:58:48;;;;;;;1.27;1.15;;;;;;;20.14;57.03;101253.78;20911959;28;20048;-65
2023/05/14 16:08:50;;;;;;;0.90;0.90;;;;;;;20.13;56.86;101249.38;20910708;28;20110;-65
2023/05/14 16:18:51;;;;;;;0.98;0.85;;;;;;;20.12;56.65;101255.75;20909867;28;20059;-64
2023/05/14 16:28:53;;;;;;;1.02;0.90;;;;;;;20.11;56.78;101248.66;20903336;28;20046;-64
2023/05/14 16:38:54;;;;;;;0.60;0.60;;;;;;;20.10;56.89;101249.66;20900407;28;20057;-64
2023/05/14 16:49:08;;;;;;;1.20;1.10;;;;;;;20.09;56.80;101245.25;20908097;28;20092;-64
2023/05/14 16:59:09;;;;;;;0.80;0.80;;;;;;;20.07;56.84;101241.81;20906668;28;20425;-64
2023/05/14 17:09:11;;;;;;;0.80;0.80;;;;;;;20.06;56.96;101237.41;20905979;28;20100;-64
2023/05/14 17:19:13;;;;;;;0.82;0.82;;;;;;;20.06;56.69;101232.00;20905077;28;20056;-64
2023/05/14 17:29:14;;;;;;;0.82;0.82;;;;;;;20.03;57.00;101232.31;20894134;28;20053;-64
2023/05/14 17:39:16;;;;;;;0.90;0.90;;;;;;;20.03;56.99;101223.31;20903801;28;20087;-64
2023/05/14 17:49:17;;;;;;;1.05;0.95;;;;;;;20.01;56.84;101237.00;20903376;28;20041;-64
2023/05/14 17:59:19;;;;;;;0.93;0.90;;;;;;;19.99;56.98;101245.22;20885053;28;20056;-64
2023/05/14 18:09:25;;;;;;;1.10;1.00;;;;;;;19.98;57.24;101248.09;20901383;28;20098;-64
2023/05/14 18:19:26;;;;;;;0.82;0.82;;;;;;;19.98;57.67;101269.72;20900112;28;20049;-64
2023/05/14 18:29:29;;;;;;;1.45;1.02;;;;;;;19.95;57.88;101273.53;20888129;28;20053;-64
2023/05/14 18:39:31;;;;;;;1.67;1.13;;;;;;;19.95;58.04;101286.22;20908847;28;20051;-64
2023/05/14 18:49:33;;;;;;;1.77;1.20;;;;;;;19.92;58.41;101291.91;20916781;28;20045;-64
2023/05/14 18:59:34;;;;;;;1.30;1.15;;;;;;;19.91;58.70;101306.41;20916693;28;20060;-64
2023/05/14 19:09:36;;;;;;;1.38;1.27;;;;;;;19.85;58.97;101308.59;20915249;28;20049;-64
2023/05/14 19:19:38;;;;;;;1.52;1.25;;;;;;;19.88;58.95;101310.19;20914701;28;20086;-65
2023/05/14 19:29:39;;;;;;;1.67;1.30;;;;;;;19.88;58.98;101323.69;20896757;28;20045;-64
2023/05/14 19:39:41;;;;;;;1.58;1.48;;;;;;;19.86;59.38;101320.28;20911646;28;20464;-64
2023/05/14 19:49:42;;;;;;;1.67;1.48;;;;;;;19.86;59.43;101321.13;20911294;28;20052;-64
2023/05/14 19:59:44;;;;;;;1.60;1.50;;;;;;;19.84;59.10;101328.50;20911731;28;20123;-64
2023/05/14 20:09:46;;;;;;;2.92;1.77;;;;;;;19.81;59.22;101323.38;20911535;28;20049;-64
2023/05/14 20:19:47;;;;;;;1.75;1.65;;;;;;;19.81;59.07;101312.59;20908815;28;20448;-64
2023/05/14 20:29:50;;;;;;;1.85;1.75;;;;;;;19.79;59.25;101306.47;20897653;28;20052;-64
2023/05/14 20:39:51;;;;;;;2.00;1.90;;;;;;;19.77;59.25;101300.34;20908891;28;20137;-64
2023/05/14 20:49:53;;;;;;;2.00;1.90;;;;;;;19.76;59.38;101298.63;20906094;28;20049;-64
2023/05/14 20:59:55;;;;;;;2.47;2.28;;;;;;;19.74;59.25;101289.81;20906757;28;20053;-64
2023/05/14 21:09:57;;;;;;;3.08;2.83;;;;;;;19.75;59.31;101286.13;20906235;28;20106;-64
2023/05/14 21:19:58;;;;;;;3.15;2.30;;;;;;;19.71;59.38;101290.09;20905590;28;20053;-64
2023/05/14 21:30:00;;;;;;;2.47;2.28;;;;;;;19.70;59.47;101274.88;20889476;28;20057;-64
2023/05/14 21:40:02;;;;;;;2.90;2.60;;;;;;;19.69;59.51;101290.25;20886909;28;20128;-64
2023/05/14 21:50:04;;;;;;;3.25;2.95;;;;;;;19.67;59.43;101278.75;20901762;28;20055;-64
2023/05/14 22:00:10;;;;;;;3.38;2.80;;;;;;;19.65;59.41;101275.28;20902136;28;20052;-64
2023/05/14 22:10:14;;;;;;;3.35;3.00;;;;;;;19.65;59.57;101252.84;20901514;28;20052;-64
2023/05/14 22:20:15;;;;;;;3.42;3.13;;;;;;;19.62;59.63;101259.38;20900315;28;20517;-64
2023/05/14 22:30:17;;;;;;;3.45;3.15;;;;;;;19.61;59.56;101240.63;20891968;28;20048;-64
2023/05/14 22:40:18;;;;;;;4.50;3.40;;;;;;;19.59;59.55;101232.66;20900605;28;20049;-64
2023/05/14 22:50:20;;;;;;;3.80;3.50;;;;;;;19.58;59.54;101220.13;20882732;28;20052;-64
2023/05/14 23:00:22;;;;;;;4.40;4.00;;;;;;;19.56;59.76;101214.03;20899639;28;20420;-64
2023/05/14 23:10:23;;;;;;;4.40;4.00;;;;;;;19.55;59.79;101201.50;20897667;28;20141;-64
2023/05/14 23:20:25;;;;;;;4.35;3.95;;;;;;;19.54;59.67;101197.97;20889396;28;20536;-64
2023/05/14 23:30:26;;;;;;;5.32;4.00;;;;;;;19.52;59.77;101175.66;20910102;28;20055;-64
2023/05/14 23:40:28;;;;;;;4.15;3.78;;;;;;;19.50;59.73;101161.44;20912065;28;20443;-64
2023/05/14 23:50:30;;;;;;;4.75;4.25;;;;;;;19.49;59.60;101156.19;20913026;28;20053;-64
